createdAt,value
2023-05-21T00:00:39.761Z,76596.34
2023-05-21T00:02:15.822Z,76629.97
2023-05-21T00:03:50.866Z,76606.22
2023-05-21T00:05:24.902Z,76614.16
2023-05-21T00:06:59.452Z,76629.97
2023-05-21T00:08:34.580Z,76624.03
2023-05-21T00:10:08.666Z,76628.00
2023-05-21T00:11:42.544Z,76641.81
2023-05-21T00:13:16.799Z,76645.78
2023-05-21T00:14:50.402Z,76655.66
2023-05-21T00:16:24.601Z,76653.69
2023-05-21T00:17:58.288Z,76647.75
2023-05-21T00:19:34.160Z,76651.72
2023-05-21T00:21:08.157Z,76643.81
2023-05-21T00:22:42.737Z,76649.75
2023-05-21T00:24:16.677Z,76651.72
2023-05-21T00:25:51.029Z,76657.66
2023-05-21T00:27:24.836Z,76659.63
2023-05-21T00:28:58.819Z,76647.75
2023-05-21T00:30:32.741Z,76635.91
2023-05-21T00:32:07.006Z,76631.94
2023-05-21T00:33:40.557Z,76624.03
2023-05-21T00:35:14.435Z,76629.97
2023-05-21T00:36:48.379Z,76616.13
2023-05-21T00:38:22.782Z,76616.13
2023-05-21T00:39:59.435Z,76604.25
2023-05-21T00:41:33.239Z,76592.41
2023-05-21T00:43:08.779Z,76578.56
2023-05-21T00:44:46.898Z,76572.63
2023-05-21T00:46:22.053Z,76566.69
2023-05-21T00:47:56.501Z,76542.97
2023-05-21T00:49:31.038Z,76493.53
2023-05-21T00:51:06.044Z,76378.84
2023-05-21T00:52:42.408Z,76327.44
2023-05-21T00:54:16.378Z,76212.75
2023-05-21T00:55:51.359Z,76165.31
2023-05-21T00:57:33.994Z,76155.41
2023-05-21T00:59:08.147Z,76100.06
2023-05-21T01:00:41.690Z,76056.56
2023-05-21T01:02:18.530Z,75979.44
2023-05-21T01:03:58.108Z,75908.28
2023-05-21T01:05:31.827Z,75850.94
2023-05-21T01:07:12.146Z,75787.69
2023-05-21T01:08:47.109Z,75767.91
2023-05-21T01:10:22.489Z,75704.63
2023-05-21T01:11:57.015Z,75663.13
2023-05-21T01:13:31.951Z,75637.44
2023-05-21T01:15:06.324Z,75605.78
2023-05-21T01:16:43.438Z,75580.09
2023-05-21T01:18:17.184Z,75570.22
2023-05-21T01:19:53.378Z,75506.94
2023-05-21T01:21:31.053Z,75457.53
2023-05-21T01:23:06.327Z,75453.56
2023-05-21T01:24:40.044Z,75423.94
2023-05-21T01:26:13.639Z,75376.47
2023-05-21T01:27:47.399Z,75348.81
2023-05-21T01:29:21.704Z,75340.91
2023-05-21T01:30:57.026Z,75244.03
2023-05-21T01:32:49.047Z,75248.00
2023-05-21T01:34:30.314Z,75198.56
2023-05-21T01:36:12.155Z,75251.94
2023-05-21T01:38:11.261Z,75218.34
2023-05-21T01:39:52.112Z,75127.41
2023-05-21T01:41:30.111Z,75099.75
2023-05-21T01:43:08.785Z,75068.09
2023-05-21T01:44:43.069Z,75070.09
2023-05-21T01:46:21.769Z,75060.22
2023-05-21T01:47:56.868Z,75054.28
2023-05-21T01:49:31.596Z,75016.72
2023-05-21T01:51:06.618Z,74965.31
2023-05-21T01:52:40.358Z,74961.38
2023-05-21T01:54:14.781Z,74937.66
2023-05-21T01:55:48.889Z,74868.47
2023-05-21T01:57:22.678Z,74872.44
2023-05-21T01:59:00.126Z,74813.13
2023-05-21T02:00:35.158Z,74745.94
2023-05-21T02:02:08.825Z,74785.47
2023-05-21T02:03:43.127Z,74795.34
2023-05-21T02:05:17.213Z,74745.94
2023-05-21T02:06:50.637Z,74736.06
2023-05-21T02:08:23.863Z,74741.97
2023-05-21T02:09:57.609Z,74716.28
2023-05-21T02:11:31.994Z,74682.69
2023-05-21T02:13:05.414Z,74639.19
2023-05-21T02:14:38.967Z,74651.06
2023-05-21T02:16:15.313Z,74631.28
2023-05-21T02:17:51.750Z,74627.34
2023-05-21T02:19:25.255Z,74581.88
2023-05-21T02:20:58.906Z,74570.03
2023-05-21T02:22:32.088Z,74625.38
2023-05-21T02:24:05.951Z,74587.81
2023-05-21T02:25:40.178Z,74585.84
2023-05-21T02:27:14.221Z,74587.81
2023-05-21T02:28:48.735Z,74623.38
2023-05-21T02:30:22.783Z,74627.34
2023-05-21T02:31:59.062Z,74619.44
2023-05-21T02:33:33.232Z,74595.72
2023-05-21T02:35:07.916Z,74623.38
2023-05-21T02:36:42.203Z,74556.19
2023-05-21T02:38:19.667Z,74552.25
2023-05-21T02:39:53.112Z,74572.00
2023-05-21T02:41:27.813Z,74575.97
2023-05-21T02:43:02.225Z,74538.41
2023-05-21T02:44:37.815Z,74471.22
2023-05-21T02:46:10.879Z,74534.44
2023-05-21T02:47:44.207Z,74388.19
2023-05-21T02:49:18.191Z,74340.78
2023-05-21T02:50:54.256Z,74362.50
2023-05-21T02:52:28.007Z,74360.53
2023-05-21T02:54:01.625Z,74352.63
2023-05-21T02:55:35.869Z,74362.50
2023-05-21T02:57:09.715Z,74358.56
2023-05-21T02:58:46.420Z,74301.25
2023-05-21T03:00:20.166Z,74243.94
2023-05-21T03:01:54.645Z,74232.06
2023-05-21T03:03:28.591Z,74188.59
2023-05-21T03:05:01.960Z,74158.97
2023-05-21T03:06:38.063Z,74147.09
2023-05-21T03:08:12.112Z,74095.72
2023-05-21T03:09:47.225Z,74265.69
2023-05-21T03:11:24.038Z,74340.78
2023-05-21T03:13:00.910Z,74279.50
2023-05-21T03:14:37.864Z,74378.31
2023-05-21T03:16:11.723Z,74263.69
2023-05-21T03:17:45.611Z,74158.97
2023-05-21T03:19:18.930Z,74064.09
2023-05-21T03:20:52.920Z,74206.38
2023-05-21T03:22:29.577Z,74105.59
2023-05-21T03:24:07.070Z,74109.56
2023-05-21T03:25:40.886Z,74139.19
2023-05-21T03:27:14.918Z,74224.19
2023-05-21T03:28:49.630Z,74330.88
2023-05-21T03:30:23.201Z,74228.13
2023-05-21T03:32:17.291Z,74277.53
2023-05-21T03:34:00.584Z,74222.19
2023-05-21T03:35:37.352Z,74168.84
2023-05-21T03:37:11.445Z,74200.47
2023-05-21T03:38:50.796Z,74267.66
2023-05-21T03:40:25.100Z,74382.28
2023-05-21T03:41:58.568Z,74402.03
2023-05-21T03:43:44.617Z,74289.38
2023-05-21T03:45:18.675Z,74342.75
2023-05-21T03:47:10.773Z,74295.31
2023-05-21T03:48:44.772Z,74239.97
2023-05-21T03:50:22.150Z,74204.41
2023-05-21T03:51:59.927Z,74196.50
2023-05-21T03:53:35.241Z,74135.25
2023-05-21T03:55:09.033Z,74042.38
2023-05-21T03:56:42.841Z,74079.91
2023-05-21T03:58:16.499Z,74038.41
2023-05-21T03:59:49.964Z,74101.66
2023-05-21T04:01:23.587Z,74127.34
2023-05-21T04:02:59.985Z,74028.53
2023-05-21T04:04:41.886Z,74010.75
2023-05-21T04:06:16.192Z,74054.22
2023-05-21T04:07:50.644Z,74066.06
2023-05-21T04:09:28.450Z,74002.84
2023-05-21T04:11:02.324Z,74008.78
2023-05-21T04:12:36.339Z,73998.88
2023-05-21T04:14:11.159Z,73939.59
2023-05-21T04:15:47.242Z,73828.94
2023-05-21T04:17:21.228Z,73921.81
2023-05-21T04:18:55.901Z,73852.66
2023-05-21T04:20:31.988Z,73870.44
2023-05-21T04:22:06.511Z,73959.38
2023-05-21T04:23:40.582Z,73904.03
2023-05-21T04:25:23.909Z,73896.13
2023-05-21T04:27:01.754Z,73909.97
2023-05-21T04:28:37.981Z,73971.22
2023-05-21T04:30:11.915Z,73971.22
2023-05-21T04:31:46.608Z,73998.88
2023-05-21T04:33:21.257Z,74050.28
2023-05-21T04:34:55.221Z,74064.09
2023-05-21T04:36:29.415Z,74028.53
2023-05-21T04:38:06.067Z,74046.31
2023-05-21T04:39:41.555Z,74097.69
2023-05-21T04:41:15.454Z,74006.78
2023-05-21T04:42:51.147Z,74095.72
2023-05-21T04:44:27.433Z,74070.03
2023-05-21T04:46:01.760Z,73991.00
2023-05-21T04:47:36.414Z,74046.31
2023-05-21T04:49:10.805Z,73927.75
2023-05-21T04:50:45.455Z,73921.81
2023-05-21T04:52:19.530Z,73994.94
2023-05-21T04:53:54.456Z,73975.19
2023-05-21T04:55:29.326Z,73876.38
2023-05-21T04:57:03.448Z,73862.53
2023-05-21T04:58:36.912Z,73919.84
2023-05-21T05:00:11.145Z,73955.41
2023-05-21T05:01:48.540Z,74026.56
2023-05-21T05:03:22.357Z,74040.38
2023-05-21T05:04:56.003Z,74054.22
2023-05-21T05:06:29.828Z,74147.09
2023-05-21T05:08:04.388Z,74052.25
2023-05-21T05:09:37.824Z,74121.41
2023-05-21T05:11:11.683Z,73987.03
2023-05-21T05:12:46.045Z,74010.75
2023-05-21T05:14:19.253Z,74066.06
2023-05-21T05:15:54.827Z,74050.28
2023-05-21T05:17:28.464Z,74004.81
2023-05-21T05:19:02.245Z,73979.13
2023-05-21T05:20:36.490Z,73983.09
2023-05-21T05:22:11.836Z,73923.78
2023-05-21T05:23:47.905Z,73900.09
2023-05-21T05:25:21.908Z,73933.69
2023-05-21T05:26:55.455Z,73868.47
2023-05-21T05:28:29.114Z,73931.69
2023-05-21T05:30:02.897Z,73886.25
2023-05-21T05:31:40.990Z,73890.19
2023-05-21T05:33:14.872Z,73939.59
2023-05-21T05:34:48.528Z,73947.50
2023-05-21T05:36:22.901Z,73852.66
2023-05-21T05:37:57.476Z,73848.72
2023-05-21T05:39:31.656Z,73900.09
2023-05-21T05:41:05.222Z,73923.78
2023-05-21T05:42:41.629Z,73807.22
2023-05-21T05:44:26.604Z,73872.41
2023-05-21T05:46:01.480Z,73880.31
2023-05-21T05:47:38.848Z,74054.22
2023-05-21T05:49:13.077Z,74002.84
2023-05-21T05:50:47.417Z,73959.38
2023-05-21T05:52:23.256Z,74018.66
2023-05-21T05:53:57.086Z,74036.44
2023-05-21T05:55:35.433Z,74034.47
2023-05-21T05:57:09.990Z,74054.22
2023-05-21T05:58:50.435Z,74060.16
2023-05-21T06:00:24.802Z,74062.13
2023-05-21T06:02:00.495Z,73981.09
2023-05-21T06:03:37.129Z,74026.56
2023-05-21T06:05:20.046Z,74133.28
2023-05-21T06:06:54.808Z,74164.88
2023-05-21T06:08:28.913Z,74188.59
2023-05-21T06:10:02.746Z,74160.94
2023-05-21T06:11:37.059Z,74121.41
2023-05-21T06:13:10.697Z,74139.19
2023-05-21T06:14:46.542Z,74133.28
2023-05-21T06:16:19.739Z,74287.41
2023-05-21T06:17:53.458Z,74232.06
2023-05-21T06:19:27.046Z,74170.81
2023-05-21T06:21:00.962Z,74239.97
2023-05-21T06:22:35.425Z,74212.31
2023-05-21T06:24:09.518Z,74247.88
2023-05-21T06:25:43.618Z,74293.34
2023-05-21T06:27:17.251Z,74398.09
2023-05-21T06:28:52.237Z,74390.19
2023-05-21T06:30:25.174Z,74413.91
2023-05-21T06:31:59.535Z,74427.72
2023-05-21T06:33:33.675Z,74441.56
2023-05-21T06:35:08.054Z,74449.47
2023-05-21T06:36:42.195Z,74540.38
2023-05-21T06:38:15.766Z,74560.16
2023-05-21T06:39:49.831Z,74560.16
2023-05-21T06:41:24.129Z,74577.94
2023-05-21T06:43:05.736Z,74653.03
2023-05-21T06:45:14.960Z,74617.47
2023-05-21T06:46:51.321Z,74546.31
2023-05-21T06:48:26.371Z,74566.06
2023-05-21T06:50:00.669Z,74508.75
2023-05-21T06:51:34.652Z,74575.97
2023-05-21T06:53:10.405Z,74508.75
2023-05-21T06:54:43.937Z,74591.78
2023-05-21T06:56:17.510Z,74603.63
2023-05-21T06:57:51.153Z,74684.66
2023-05-21T06:59:25.348Z,74655.00
2023-05-21T07:01:02.120Z,74666.88
2023-05-21T07:02:37.100Z,74639.19
2023-05-21T07:04:11.526Z,74645.13
2023-05-21T07:05:47.198Z,74664.91
2023-05-21T07:07:20.781Z,74643.16
2023-05-21T07:08:54.312Z,74651.06
2023-05-21T07:10:27.619Z,74556.19
2023-05-21T07:12:02.606Z,74564.09
2023-05-21T07:13:37.099Z,74611.53
2023-05-21T07:15:11.708Z,74637.22
2023-05-21T07:16:46.126Z,74688.63
2023-05-21T07:18:20.480Z,74722.22
2023-05-21T07:19:54.360Z,74730.13
2023-05-21T07:21:28.143Z,74690.59
2023-05-21T07:23:01.863Z,74773.59
2023-05-21T07:24:35.473Z,74726.16
2023-05-21T07:26:10.636Z,74674.78
2023-05-21T07:27:44.163Z,74678.72
2023-05-21T07:29:17.543Z,74692.56
2023-05-21T07:30:51.531Z,74670.81
2023-05-21T07:32:29.863Z,74745.94
2023-05-21T07:34:03.917Z,74708.38
2023-05-21T07:35:39.112Z,74714.31
2023-05-21T07:37:14.339Z,74740.00
2023-05-21T07:38:48.007Z,74668.84
2023-05-21T07:40:21.620Z,74570.03
2023-05-21T07:41:55.388Z,74615.47
2023-05-21T07:43:30.359Z,74698.50
2023-05-21T07:45:04.470Z,74639.19
2023-05-21T07:46:42.970Z,74664.91
2023-05-21T07:48:19.800Z,74581.88
2023-05-21T07:50:01.637Z,74597.69
2023-05-21T07:51:37.551Z,74653.03
2023-05-21T07:53:11.218Z,74653.03
2023-05-21T07:54:44.567Z,74647.09
2023-05-21T07:56:18.515Z,74700.47
2023-05-21T07:57:52.758Z,74724.19
2023-05-21T07:59:32.188Z,74655.00
2023-05-21T08:01:14.671Z,74635.25
2023-05-21T08:02:49.021Z,74589.78
2023-05-21T08:04:23.517Z,74609.56
2023-05-21T08:05:58.759Z,74564.09
2023-05-21T08:07:33.023Z,74593.75
2023-05-21T08:09:07.189Z,74643.16
2023-05-21T08:10:41.394Z,74678.72
2023-05-21T08:12:16.310Z,74682.69
2023-05-21T08:13:50.499Z,74720.25
2023-05-21T08:15:24.095Z,74690.59
2023-05-21T08:16:57.731Z,74666.88
2023-05-21T08:18:31.505Z,74700.47
2023-05-21T08:20:05.666Z,74682.69
2023-05-21T08:21:42.059Z,74682.69
2023-05-21T08:23:17.725Z,74700.47
2023-05-21T08:24:56.460Z,74777.56
2023-05-21T08:26:29.714Z,74706.41
2023-05-21T08:28:03.264Z,74747.91
2023-05-21T08:29:37.145Z,74710.34
2023-05-21T08:31:12.956Z,74666.88
2023-05-21T08:32:46.996Z,74615.47
2023-05-21T08:34:22.842Z,74662.91
2023-05-21T08:36:08.406Z,74649.09
2023-05-21T08:37:51.688Z,74702.44
2023-05-21T08:39:47.048Z,74655.00
2023-05-21T08:41:24.807Z,74631.28
2023-05-21T08:42:59.626Z,74611.53
2023-05-21T08:44:49.615Z,74678.72
2023-05-21T08:46:25.712Z,74680.72
2023-05-21T08:48:00.186Z,74660.94
2023-05-21T08:49:38.738Z,74692.56
2023-05-21T08:51:13.083Z,74649.09
2023-05-21T08:52:53.171Z,74631.28
2023-05-21T08:54:28.297Z,74591.78
2023-05-21T08:56:02.443Z,74587.81
2023-05-21T08:57:47.906Z,74655.00
2023-05-21T08:59:24.039Z,74647.09
2023-05-21T09:00:58.890Z,74617.47
2023-05-21T09:02:41.009Z,74572.00
2023-05-21T09:04:21.217Z,74575.97
2023-05-21T09:05:59.598Z,74564.09
2023-05-21T09:07:40.257Z,74538.41
2023-05-21T09:09:40.524Z,74603.63
2023-05-21T09:11:15.111Z,74595.72
2023-05-21T09:12:57.034Z,74611.53
2023-05-21T09:14:31.635Z,74593.75
2023-05-21T09:16:20.170Z,74589.78
2023-05-21T09:17:54.066Z,74575.97
2023-05-21T09:20:27.206Z,74554.22
2023-05-21T09:22:05.801Z,74536.44
2023-05-21T09:23:40.359Z,74599.69
2023-05-21T09:25:16.755Z,74611.53
2023-05-21T09:26:52.704Z,74591.78
2023-05-21T09:28:26.705Z,74591.78
2023-05-21T09:30:00.578Z,74550.25
2023-05-21T09:31:34.565Z,74619.44
2023-05-21T09:33:08.200Z,74554.22
2023-05-21T09:34:42.041Z,74546.31
2023-05-21T09:36:20.542Z,74516.66
2023-05-21T09:37:54.784Z,74494.94
2023-05-21T09:39:30.569Z,74477.13
2023-05-21T09:41:08.271Z,74520.63
2023-05-21T09:42:46.336Z,74494.94
2023-05-21T09:44:20.263Z,74423.78
2023-05-21T09:45:56.197Z,74406.00
2023-05-21T09:47:33.876Z,74409.94
2023-05-21T09:49:07.531Z,74528.53
2023-05-21T09:50:41.373Z,74560.16
2023-05-21T09:52:15.025Z,74572.00
2023-05-21T09:53:54.443Z,74528.53
2023-05-21T09:55:29.330Z,74477.13
2023-05-21T09:57:05.244Z,74473.19
2023-05-21T09:58:39.786Z,74481.09
2023-05-21T10:00:24.111Z,74437.63
2023-05-21T10:01:57.864Z,74453.41
2023-05-21T10:03:34.175Z,74441.56
2023-05-21T10:05:11.919Z,74425.75
2023-05-21T10:06:50.286Z,74490.97
2023-05-21T10:08:28.214Z,74504.81
2023-05-21T10:10:04.015Z,74469.22
2023-05-21T10:11:38.286Z,74475.16
2023-05-21T10:13:14.945Z,74512.72
2023-05-21T10:14:55.082Z,74487.03
2023-05-21T10:16:30.596Z,74528.53
2023-05-21T10:18:05.494Z,74548.28
2023-05-21T10:19:41.019Z,74548.28
2023-05-21T10:21:18.323Z,74498.88
2023-05-21T10:22:53.754Z,74489.00
2023-05-21T10:24:28.061Z,74512.72
2023-05-21T10:26:01.943Z,74500.84
2023-05-21T10:27:38.873Z,74508.75
2023-05-21T10:29:18.096Z,74532.47
2023-05-21T10:30:54.393Z,74544.34
2023-05-21T10:32:28.531Z,74514.69
2023-05-21T10:34:05.275Z,74524.56
2023-05-21T10:35:41.757Z,74514.69
2023-05-21T10:37:16.814Z,74540.38
2023-05-21T10:38:50.052Z,74554.22
2023-05-21T10:40:24.096Z,74572.00
2023-05-21T10:42:21.768Z,74536.44
2023-05-21T10:43:58.324Z,74496.91
2023-05-21T10:46:03.827Z,74506.78
2023-05-21T10:47:54.347Z,74490.97
2023-05-21T10:49:47.546Z,74514.69
2023-05-21T10:51:24.388Z,74526.53
2023-05-21T10:53:51.355Z,74536.44
2023-05-21T10:55:50.597Z,74516.66
2023-05-21T10:57:42.620Z,74457.38
2023-05-21T10:59:29.268Z,74496.91
2023-05-21T11:01:04.348Z,74512.72
2023-05-21T11:02:38.270Z,74496.91
2023-05-21T11:04:12.851Z,74514.69
2023-05-21T11:05:57.156Z,74518.66
2023-05-21T11:07:58.760Z,74500.84
2023-05-21T11:09:32.730Z,74504.81
2023-05-21T11:11:06.543Z,74516.66
2023-05-21T11:13:11.390Z,74483.06
2023-05-21T11:14:57.654Z,74485.03
2023-05-21T11:16:31.797Z,74477.13
2023-05-21T11:18:05.731Z,74477.13
2023-05-21T11:19:51.231Z,74457.38
2023-05-21T11:21:31.156Z,74447.50
2023-05-21T11:23:05.689Z,74417.84
2023-05-21T11:24:41.742Z,74437.63
2023-05-21T11:26:28.383Z,74415.88
2023-05-21T11:28:07.252Z,74461.31
2023-05-21T11:29:45.050Z,74425.75
2023-05-21T11:31:30.383Z,74425.75
2023-05-21T11:33:14.389Z,74473.19
2023-05-21T11:34:49.030Z,74498.88
2023-05-21T11:36:23.213Z,74477.13
2023-05-21T11:37:56.808Z,74520.63
2023-05-21T11:39:30.754Z,74504.81
2023-05-21T11:41:04.907Z,74526.53
2023-05-21T11:42:42.833Z,74520.63
2023-05-21T11:44:16.054Z,74508.75
2023-05-21T11:45:52.855Z,74516.66
2023-05-21T11:47:28.382Z,74469.22
2023-05-21T11:49:03.634Z,74510.75
2023-05-21T11:50:38.085Z,74514.69
2023-05-21T11:52:15.565Z,74522.59
2023-05-21T11:53:49.613Z,74477.13
2023-05-21T11:55:25.434Z,74467.25
2023-05-21T11:57:00.792Z,74465.28
2023-05-21T11:58:34.633Z,74469.22
2023-05-21T12:00:14.694Z,74487.03
2023-05-21T12:01:49.499Z,74449.47
2023-05-21T12:03:27.496Z,74445.50
2023-05-21T12:05:02.592Z,74439.59
2023-05-21T12:06:38.570Z,74473.19
2023-05-21T12:08:12.760Z,74465.28
2023-05-21T12:09:50.183Z,74453.41
2023-05-21T12:11:24.580Z,74455.41
2023-05-21T12:12:58.413Z,74479.13
2023-05-21T12:14:32.994Z,74496.91
2023-05-21T12:16:07.968Z,74467.25
2023-05-21T12:17:42.261Z,74489.00
2023-05-21T12:19:19.538Z,74469.22
2023-05-21T12:20:53.257Z,74441.56
2023-05-21T12:22:28.708Z,74471.22
2023-05-21T12:24:03.031Z,74477.13
2023-05-21T12:25:36.736Z,74485.03
2023-05-21T12:27:13.562Z,74485.03
2023-05-21T12:28:48.221Z,74485.03
2023-05-21T12:30:22.259Z,74510.75
2023-05-21T12:32:03.838Z,74498.88
2023-05-21T12:33:37.658Z,74532.47
2023-05-21T12:35:22.134Z,74508.75
2023-05-21T12:36:56.092Z,74516.66
2023-05-21T12:38:32.933Z,74540.38
2023-05-21T12:40:10.437Z,74554.22
2023-05-21T12:41:44.705Z,74554.22
2023-05-21T12:43:18.755Z,74560.16
2023-05-21T12:44:53.697Z,74554.22
2023-05-21T12:46:28.579Z,74536.44
2023-05-21T12:48:02.615Z,74556.19
2023-05-21T12:49:50.307Z,74568.06
2023-05-21T12:51:24.286Z,74534.44
2023-05-21T12:52:59.475Z,74528.53
2023-05-21T12:54:40.489Z,74518.66
2023-05-21T12:56:15.885Z,74556.19
2023-05-21T12:57:49.684Z,74573.97
2023-05-21T12:59:23.420Z,74560.16
2023-05-21T13:00:58.764Z,74568.06
2023-05-21T13:02:34.938Z,74572.00
2023-05-21T13:04:08.908Z,74572.00
2023-05-21T13:05:42.852Z,74558.16
2023-05-21T13:07:17.315Z,74575.97
2023-05-21T13:08:51.269Z,74572.00
2023-05-21T13:10:24.846Z,74562.13
2023-05-21T13:11:58.249Z,74546.31
2023-05-21T13:13:32.025Z,74548.28
2023-05-21T13:15:08.644Z,74572.00
2023-05-21T13:16:47.757Z,74560.16
2023-05-21T13:18:21.986Z,74575.97
2023-05-21T13:20:18.405Z,74558.16
2023-05-21T13:21:52.114Z,74550.25
2023-05-21T13:23:26.228Z,74583.88
2023-05-21T13:24:59.758Z,74587.81
2023-05-21T13:26:34.151Z,74591.78
2023-05-21T13:28:10.727Z,74591.78
2023-05-21T13:29:44.170Z,74589.78
2023-05-21T13:31:17.837Z,74577.94
2023-05-21T13:32:52.792Z,74589.78
2023-05-21T13:34:26.149Z,74593.75
2023-05-21T13:35:59.437Z,74609.56
2023-05-21T13:37:35.286Z,74579.91
2023-05-21T13:39:09.042Z,74581.88
2023-05-21T13:40:42.625Z,74579.91
2023-05-21T13:42:16.401Z,74583.88
2023-05-21T13:43:50.028Z,74595.72
2023-05-21T13:45:29.535Z,74619.44
2023-05-21T13:47:12.476Z,74637.22
2023-05-21T13:48:48.581Z,74658.97
2023-05-21T13:50:22.350Z,74672.81
2023-05-21T13:51:56.693Z,74668.84
2023-05-21T13:53:30.872Z,74662.91
2023-05-21T13:55:05.159Z,74666.88
2023-05-21T13:56:38.874Z,74682.69
2023-05-21T13:58:12.934Z,74672.81
2023-05-21T13:59:46.531Z,74672.81
2023-05-21T14:01:20.104Z,74708.38
2023-05-21T14:02:54.327Z,74706.41
2023-05-21T14:04:28.608Z,74702.44
2023-05-21T14:06:02.748Z,74722.22
2023-05-21T14:07:36.543Z,74722.22
2023-05-21T14:09:10.800Z,74714.31
2023-05-21T14:10:44.564Z,74710.34
2023-05-21T14:12:18.161Z,74714.31
2023-05-21T14:13:52.138Z,74741.97
2023-05-21T14:15:25.595Z,74741.97
2023-05-21T14:16:59.508Z,74747.91
2023-05-21T14:18:33.309Z,74757.78
2023-05-21T14:20:08.008Z,74771.63
2023-05-21T14:21:42.239Z,74781.50
2023-05-21T14:23:16.101Z,74769.66
2023-05-21T14:24:49.969Z,74773.59
2023-05-21T14:26:23.393Z,74777.56
2023-05-21T14:27:56.948Z,74767.66
2023-05-21T14:29:30.578Z,74783.47
2023-05-21T14:31:04.436Z,74795.34
2023-05-21T14:32:38.343Z,74787.44
2023-05-21T14:34:12.023Z,74793.38
2023-05-21T14:35:45.797Z,74797.31
2023-05-21T14:37:19.192Z,74803.25
2023-05-21T14:38:53.235Z,74805.22
2023-05-21T14:40:26.799Z,74811.16
2023-05-21T14:42:00.849Z,74809.19
2023-05-21T14:43:34.928Z,74809.19
2023-05-21T14:45:18.830Z,74815.09
2023-05-21T14:46:52.792Z,74834.88
2023-05-21T14:48:26.964Z,74821.03
2023-05-21T14:50:00.157Z,74828.94
2023-05-21T14:51:33.673Z,74825.00
2023-05-21T14:53:12.952Z,74832.91
2023-05-21T14:54:46.938Z,74846.72
2023-05-21T14:56:22.317Z,74844.75
2023-05-21T14:57:55.520Z,74846.72
2023-05-21T14:59:29.382Z,74848.72
2023-05-21T15:01:04.677Z,74884.28
2023-05-21T15:02:38.717Z,74860.56
2023-05-21T15:04:12.223Z,74876.38
2023-05-21T15:05:46.116Z,74874.41
2023-05-21T15:07:20.142Z,74884.28
2023-05-21T15:08:54.035Z,74894.16
2023-05-21T15:10:31.039Z,74898.13
2023-05-21T15:12:04.626Z,74908.00
2023-05-21T15:13:39.305Z,74904.06
2023-05-21T15:15:13.153Z,74915.91
2023-05-21T15:16:46.675Z,74919.88
2023-05-21T15:18:20.150Z,74931.72
2023-05-21T15:19:54.125Z,74929.75
2023-05-21T15:21:28.193Z,74935.69
2023-05-21T15:24:38.444Z,74963.34
2023-05-21T15:26:12.391Z,74961.38
2023-05-21T15:27:47.215Z,74994.97
2023-05-21T15:29:22.219Z,74975.22
2023-05-21T15:30:56.383Z,74987.06
2023-05-21T15:32:30.219Z,74985.09
2023-05-21T15:34:04.213Z,74991.03
2023-05-21T15:35:38.528Z,74993.00
2023-05-21T15:37:15.980Z,75000.91
2023-05-21T15:38:50.730Z,75010.78
2023-05-21T15:40:26.752Z,75020.66
2023-05-21T15:42:03.842Z,75026.59
2023-05-21T15:43:37.772Z,75030.56
2023-05-21T15:45:11.886Z,75038.47
2023-05-21T15:46:45.557Z,75046.38
2023-05-21T15:48:22.883Z,75054.28
2023-05-21T15:49:56.710Z,75054.28
2023-05-21T15:51:30.790Z,75081.94
2023-05-21T15:53:05.588Z,75066.13
2023-05-21T15:54:39.393Z,75072.06
2023-05-21T15:56:15.053Z,75070.09
2023-05-21T15:57:48.645Z,75078.00
2023-05-21T15:59:21.979Z,75085.91
2023-05-21T16:00:55.862Z,75095.78
2023-05-21T16:02:35.367Z,75097.75
2023-05-21T16:04:09.290Z,75105.66
2023-05-21T16:05:42.803Z,75109.63
2023-05-21T16:07:16.236Z,75117.53
2023-05-21T16:08:49.941Z,75123.47
2023-05-21T16:10:23.815Z,75129.38
2023-05-21T16:11:57.431Z,75141.25
2023-05-21T16:13:30.971Z,75135.31
2023-05-21T16:15:04.903Z,75141.25
2023-05-21T16:16:39.691Z,75149.16
2023-05-21T16:18:13.759Z,75161.00
2023-05-21T16:19:47.947Z,75164.97
2023-05-21T16:21:21.669Z,75174.84
2023-05-21T16:22:55.829Z,75170.91
2023-05-21T16:24:29.932Z,75172.88
2023-05-21T16:26:03.817Z,75184.72
2023-05-21T16:27:37.426Z,75188.69
2023-05-21T16:29:11.440Z,75188.69
2023-05-21T16:30:45.788Z,75192.63
2023-05-21T16:32:22.549Z,75200.53
2023-05-21T16:33:56.500Z,75212.41
2023-05-21T16:35:31.948Z,75218.34
2023-05-21T16:37:08.256Z,75222.28
2023-05-21T16:38:41.917Z,75234.16
2023-05-21T16:40:18.518Z,75248.00
2023-05-21T16:41:52.296Z,75249.97
2023-05-21T16:43:29.171Z,75255.91
2023-05-21T16:45:02.722Z,75263.81
2023-05-21T16:46:35.911Z,75275.66
2023-05-21T16:48:10.610Z,75285.53
2023-05-21T16:49:44.222Z,75289.50
2023-05-21T16:51:18.471Z,75287.53
2023-05-21T16:52:51.768Z,75299.38
2023-05-21T16:54:25.192Z,75299.38
2023-05-21T16:55:58.798Z,75329.03
2023-05-21T16:57:32.123Z,75321.13
2023-05-21T16:59:06.052Z,75321.13
2023-05-21T17:00:40.543Z,75331.00
2023-05-21T17:02:14.409Z,75342.88
2023-05-21T17:03:47.715Z,75342.88
2023-05-21T17:05:21.904Z,75350.78
2023-05-21T17:06:55.464Z,75358.69
2023-05-21T17:08:29.248Z,75378.47
2023-05-21T17:10:03.302Z,75378.47
2023-05-21T17:11:37.130Z,75414.03
2023-05-21T17:13:21.657Z,75404.16
2023-05-21T17:14:56.475Z,75421.94
2023-05-21T17:16:30.005Z,75431.84
2023-05-21T17:18:03.574Z,75451.59
2023-05-21T17:19:37.888Z,75469.38
2023-05-21T17:21:11.454Z,75491.13
2023-05-21T17:22:45.211Z,75491.13
2023-05-21T17:24:18.443Z,75501.03
2023-05-21T17:25:53.153Z,75518.81
2023-05-21T17:27:26.499Z,75528.69
2023-05-21T17:28:59.668Z,75542.53
2023-05-21T17:30:32.878Z,75548.47
2023-05-21T17:32:06.919Z,75556.38
2023-05-21T17:33:40.348Z,75560.31
2023-05-21T17:35:13.860Z,75568.22
2023-05-21T17:36:47.370Z,75568.22
2023-05-21T17:38:21.069Z,75578.13
2023-05-21T17:39:54.413Z,75584.06
2023-05-21T17:41:27.714Z,75584.06
2023-05-21T17:43:01.088Z,75584.06
2023-05-21T17:44:34.830Z,75595.91
2023-05-21T17:46:08.321Z,75631.50
2023-05-21T17:47:41.766Z,75599.88
2023-05-21T17:49:15.113Z,75603.81
2023-05-21T17:50:48.490Z,75615.69
2023-05-21T17:52:21.775Z,75615.69
2023-05-21T17:53:54.951Z,75611.72
2023-05-21T17:55:28.251Z,75607.78
2023-05-21T17:57:01.897Z,75609.75
2023-05-21T17:58:35.489Z,75623.59
2023-05-21T18:00:09.561Z,75623.59
2023-05-21T18:01:45.634Z,75633.47
2023-05-21T18:03:19.546Z,75639.41
2023-05-21T18:04:52.676Z,75647.31
2023-05-21T18:06:25.896Z,75641.38
2023-05-21T18:08:01.760Z,75643.34
2023-05-21T18:09:36.763Z,75647.31
2023-05-21T18:11:10.352Z,75637.44
2023-05-21T18:12:46.626Z,75635.44
2023-05-21T18:14:20.148Z,75635.44
2023-05-21T18:15:53.938Z,75623.59
2023-05-21T18:17:27.380Z,75619.63
2023-05-21T18:19:06.322Z,75607.78
2023-05-21T18:20:39.877Z,75593.94
2023-05-21T18:22:13.517Z,75595.91
2023-05-21T18:23:47.440Z,75584.06
2023-05-21T18:25:21.092Z,75584.06
2023-05-21T18:26:54.325Z,75589.97
2023-05-21T18:28:33.151Z,75591.97
2023-05-21T18:30:07.708Z,75584.06
2023-05-21T18:31:41.317Z,75595.91
2023-05-21T18:33:18.425Z,75586.03
2023-05-21T18:34:52.269Z,75591.97
2023-05-21T18:36:26.894Z,75595.91
2023-05-21T18:38:00.195Z,75595.91
2023-05-21T18:39:36.298Z,75601.84
2023-05-21T18:41:09.962Z,75603.81
2023-05-21T18:42:43.378Z,75597.88
2023-05-21T18:44:16.656Z,75597.88
2023-05-21T18:45:50.178Z,75588.00
2023-05-21T18:47:24.252Z,75599.88